createdAt,value
2019-06-18T00:01:40.654Z,17.30
2019-06-18T00:04:10.930Z,17.30
2019-06-18T00:06:40.830Z,17.20
2019-06-18T00:09:10.858Z,17.20
2019-06-18T00:11:40.927Z,17.20
2019-06-18T00:14:11.022Z,17.20
2019-06-18T00:16:41.453Z,17.10
2019-06-18T00:19:10.754Z,17.10
2019-06-18T00:21:41.470Z,17.00
2019-06-18T00:24:10.726Z,16.90
2019-06-18T00:26:41.761Z,16.90
2019-06-18T00:29:11.003Z,16.90
2019-06-18T00:31:40.702Z,16.80
2019-06-18T00:34:11.246Z,16.70
2019-06-18T00:36:40.533Z,16.70
2019-06-18T00:39:09.439Z,16.70
2019-06-18T00:41:38.341Z,16.60
2019-06-18T00:44:07.982Z,16.60
2019-06-18T00:46:37.199Z,16.60
2019-06-18T00:49:07.273Z,16.50
2019-06-18T00:51:37.422Z,16.50
2019-06-18T00:54:06.989Z,16.40
2019-06-18T00:56:37.371Z,16.40
2019-06-18T00:59:07.639Z,16.40
2019-06-18T01:01:38.315Z,16.30
2019-06-18T01:04:07.328Z,16.20
2019-06-18T01:06:38.216Z,16.30
2019-06-18T01:09:08.105Z,16.30
2019-06-18T01:11:37.913Z,16.20
2019-06-18T01:14:07.744Z,16.20
2019-06-18T01:16:38.746Z,16.10
2019-06-18T01:19:07.489Z,16.10
2019-06-18T01:21:38.196Z,16.10
2019-06-18T01:24:06.917Z,16.00
2019-06-18T01:26:35.757Z,16.10
2019-06-18T01:29:05.308Z,16.10
2019-06-18T01:31:34.086Z,16.00
2019-06-18T01:34:03.232Z,16.00
2019-06-18T01:36:32.978Z,15.90
2019-06-18T01:39:02.592Z,15.90
2019-06-18T01:41:32.700Z,15.80
2019-06-18T01:44:03.227Z,15.80
2019-06-18T01:46:38.343Z,15.80
2019-06-18T01:49:03.278Z,15.80
2019-06-18T01:51:33.430Z,15.70
2019-06-18T01:54:02.766Z,15.70
2019-06-18T01:56:32.624Z,15.70
2019-06-18T01:59:02.541Z,15.70
2019-06-18T02:01:32.351Z,15.60
2019-06-18T02:04:03.339Z,15.60
2019-06-18T02:06:33.125Z,15.70
2019-06-18T02:09:02.895Z,15.60
2019-06-18T02:11:33.439Z,15.50
2019-06-18T02:14:03.675Z,15.50
2019-06-18T02:16:37.239Z,15.50
2019-06-18T02:19:03.522Z,15.50
2019-06-18T02:21:33.243Z,15.50
2019-06-18T02:24:02.848Z,15.50
2019-06-18T02:26:33.323Z,15.40
2019-06-18T02:29:02.839Z,15.40
2019-06-18T02:31:35.056Z,15.30
2019-06-18T02:34:03.775Z,15.30
2019-06-18T02:36:33.069Z,15.20
2019-06-18T02:39:02.947Z,15.30
2019-06-18T02:41:32.926Z,15.20
2019-06-18T02:44:02.645Z,15.20
2019-06-18T02:46:32.778Z,15.20
2019-06-18T02:49:02.622Z,15.20
2019-06-18T02:51:32.611Z,15.20
2019-06-18T02:54:02.971Z,15.10
2019-06-18T02:56:33.229Z,15.10
2019-06-18T02:59:03.178Z,15.00
2019-06-18T03:01:37.333Z,15.00
2019-06-18T03:04:06.259Z,15.00
2019-06-18T03:06:35.307Z,15.00
2019-06-18T03:09:07.120Z,15.00
2019-06-18T03:11:36.017Z,15.00
2019-06-18T03:14:05.565Z,15.00
2019-06-18T03:16:34.540Z,15.00
2019-06-18T03:19:03.642Z,15.00
2019-06-18T03:21:33.061Z,15.00
2019-06-18T03:24:02.598Z,15.10
2019-06-18T03:26:32.891Z,15.10
2019-06-18T03:29:02.527Z,15.10
2019-06-18T03:31:34.941Z,15.10
2019-06-18T03:34:05.668Z,15.20
2019-06-18T03:36:33.439Z,15.20
2019-06-18T03:39:02.750Z,15.20
2019-06-18T03:41:32.376Z,15.30
2019-06-18T03:44:03.134Z,15.40
2019-06-18T03:46:33.258Z,15.50
2019-06-18T03:49:02.880Z,15.50
2019-06-18T03:51:33.300Z,15.60
2019-06-18T03:54:03.222Z,15.70
2019-06-18T03:56:33.277Z,15.70
2019-06-18T03:59:02.783Z,15.90
2019-06-18T04:01:38.310Z,16.00
2019-06-18T04:04:07.278Z,16.10
2019-06-18T04:06:36.066Z,16.10
2019-06-18T04:09:06.569Z,16.20
2019-06-18T04:11:35.379Z,16.30
2019-06-18T04:14:04.490Z,16.30
2019-06-18T04:16:33.315Z,16.50
2019-06-18T04:19:03.351Z,16.60
2019-06-18T04:21:33.063Z,16.70
2019-06-18T04:24:03.150Z,16.80
2019-06-18T04:26:33.328Z,16.90
2019-06-18T04:29:03.472Z,17.00
2019-06-18T04:31:33.094Z,17.00
2019-06-18T04:34:02.998Z,17.20
2019-06-18T04:36:33.309Z,17.30
2019-06-18T04:39:02.868Z,17.40
2019-06-18T04:41:32.950Z,17.50
2019-06-18T04:44:04.025Z,17.70
2019-06-18T04:46:33.206Z,17.80
2019-06-18T04:49:03.866Z,18.00
2019-06-18T04:51:32.818Z,18.30
2019-06-18T04:54:03.206Z,18.40
2019-06-18T04:56:33.292Z,18.60
2019-06-18T04:59:03.215Z,18.80
2019-06-18T05:01:33.033Z,19.00
2019-06-18T05:04:03.588Z,19.20
2019-06-18T05:06:33.124Z,19.40
2019-06-18T05:09:03.209Z,19.60
2019-06-18T05:11:34.021Z,19.70
2019-06-18T05:14:03.065Z,20.00
2019-06-18T05:16:32.532Z,20.10
2019-06-18T05:19:03.969Z,20.30
2019-06-18T05:21:32.381Z,20.50
2019-06-18T05:24:02.932Z,20.60
2019-06-18T05:26:32.685Z,20.80
2019-06-18T05:29:02.971Z,20.90
2019-06-18T05:31:33.822Z,21.10
2019-06-18T05:34:03.033Z,21.20
2019-06-18T05:36:32.750Z,21.30
2019-06-18T05:39:03.235Z,21.60
2019-06-18T05:41:32.771Z,21.60
2019-06-18T05:44:02.995Z,21.70
2019-06-18T05:46:32.986Z,22.00
2019-06-18T05:49:03.960Z,22.20
2019-06-18T05:51:33.353Z,22.30
2019-06-18T05:54:03.243Z,22.40
2019-06-18T05:56:33.844Z,22.50
2019-06-18T05:59:03.544Z,22.70
2019-06-18T06:01:33.696Z,22.90
2019-06-18T06:04:02.747Z,22.80
2019-06-18T06:06:32.987Z,23.00
2019-06-18T06:09:02.953Z,23.10
2019-06-18T06:11:32.988Z,23.30
2019-06-18T06:14:03.287Z,23.50
2019-06-18T06:16:33.649Z,23.60
2019-06-18T06:19:13.493Z,23.70
2019-06-18T06:21:33.763Z,23.70
2019-06-18T06:24:03.053Z,23.70
2019-06-18T06:26:33.296Z,23.80
2019-06-18T06:29:03.370Z,24.10
2019-06-18T06:31:32.462Z,24.30
2019-06-18T06:34:02.969Z,24.50
2019-06-18T06:36:33.445Z,24.70
2019-06-18T06:39:03.759Z,24.90
2019-06-18T06:41:33.027Z,25.20
2019-06-18T06:44:02.918Z,25.60
2019-06-18T06:46:33.437Z,25.90
2019-06-18T06:49:02.898Z,26.40
2019-06-18T06:51:32.700Z,27.20
2019-06-18T06:54:03.353Z,27.90
2019-06-18T06:56:33.028Z,28.60
2019-06-18T06:59:03.354Z,29.20
2019-06-18T07:01:32.898Z,29.20
2019-06-18T07:04:03.168Z,29.70
2019-06-18T07:06:32.725Z,30.40
2019-06-18T07:09:03.177Z,30.40
2019-06-18T07:11:33.950Z,30.50
2019-06-18T07:14:03.075Z,29.90
2019-06-18T07:16:33.676Z,30.30
2019-06-18T07:19:02.942Z,30.70
2019-06-18T07:21:32.965Z,30.30
2019-06-18T07:24:03.045Z,31.10
2019-06-18T07:26:33.999Z,31.40
2019-06-18T07:29:03.324Z,31.10
2019-06-18T07:31:33.058Z,31.40
2019-06-18T07:34:04.859Z,30.90
2019-06-18T07:36:33.269Z,31.00
2019-06-18T07:39:02.909Z,30.80
2019-06-18T07:41:32.672Z,31.80
2019-06-18T07:44:02.516Z,32.10
2019-06-18T07:46:33.807Z,32.20
2019-06-18T07:49:02.871Z,31.80
2019-06-18T07:51:33.507Z,32.30
2019-06-18T07:54:03.857Z,32.40
2019-06-18T07:56:33.146Z,32.30
2019-06-18T07:59:02.558Z,31.90
2019-06-18T08:01:33.748Z,32.00
2019-06-18T08:04:03.165Z,32.60
2019-06-18T08:06:33.006Z,33.10
2019-06-18T08:09:03.303Z,32.90
2019-06-18T08:11:33.655Z,32.80
2019-06-18T08:14:03.292Z,33.60
2019-06-18T08:16:33.365Z,33.50
2019-06-18T08:19:02.963Z,32.70
2019-06-18T08:21:32.965Z,32.40
2019-06-18T08:24:03.549Z,32.00
2019-06-18T08:26:33.126Z,32.20
2019-06-18T08:29:02.949Z,32.50
2019-06-18T08:31:32.916Z,32.90
2019-06-18T08:34:03.482Z,33.10
2019-06-18T08:36:33.082Z,32.90
2019-06-18T08:39:03.233Z,32.70
2019-06-18T08:41:32.720Z,31.80
2019-06-18T08:44:03.651Z,32.00
2019-06-18T08:46:32.722Z,32.00
2019-06-18T08:49:02.829Z,32.60
2019-06-18T08:51:33.365Z,33.00
2019-06-18T08:54:02.834Z,33.30
2019-06-18T08:56:33.819Z,33.30
2019-06-18T08:59:02.950Z,33.00
2019-06-18T09:01:32.822Z,33.00
2019-06-18T09:04:03.732Z,33.50
2019-06-18T09:06:33.568Z,32.90
2019-06-18T09:09:03.171Z,33.10
2019-06-18T09:11:32.986Z,33.20
2019-06-18T09:14:02.721Z,33.70
2019-06-18T09:16:32.709Z,33.10
2019-06-18T09:19:02.887Z,32.60
2019-06-18T09:21:32.962Z,32.50
2019-06-18T09:24:03.768Z,33.10
2019-06-18T09:26:32.801Z,33.10
2019-06-18T09:29:02.673Z,33.60
2019-06-18T09:31:32.892Z,32.80
2019-06-18T09:34:02.606Z,33.30
2019-06-18T09:36:32.972Z,34.30
2019-06-18T09:39:02.844Z,33.90
2019-06-18T09:41:34.297Z,33.40
2019-06-18T09:44:03.508Z,33.50
2019-06-18T09:46:33.386Z,32.80
2019-06-18T09:49:03.058Z,32.30
2019-06-18T09:51:33.216Z,32.00
2019-06-18T09:54:02.763Z,32.20
2019-06-18T09:56:33.339Z,32.40
2019-06-18T09:59:02.749Z,32.20
2019-06-18T10:01:33.627Z,32.50
2019-06-18T10:04:02.707Z,32.00
2019-06-18T10:06:32.680Z,32.10
2019-06-18T10:09:03.212Z,32.60
2019-06-18T10:11:33.690Z,33.00
2019-06-18T10:14:02.954Z,33.00
2019-06-18T10:16:32.686Z,32.90
2019-06-18T10:19:03.730Z,32.80
2019-06-18T10:21:37.989Z,33.20
2019-06-18T10:24:02.620Z,33.10
2019-06-18T10:26:32.405Z,32.50
2019-06-18T10:29:21.538Z,32.50
2019-06-18T10:31:33.929Z,32.50
2019-06-18T10:34:03.127Z,32.20
2019-06-18T10:36:32.570Z,31.60
2019-06-18T10:39:02.890Z,31.40
2019-06-18T10:41:32.225Z,31.70
2019-06-18T10:44:02.596Z,31.50
2019-06-18T10:46:32.943Z,32.00
2019-06-18T10:49:16.967Z,32.40
2019-06-18T10:51:33.527Z,32.70
2019-06-18T10:54:03.968Z,32.30
2019-06-18T10:56:33.091Z,32.10
2019-06-18T10:59:02.964Z,32.40
2019-06-18T11:01:32.838Z,32.70
2019-06-18T11:04:03.791Z,32.30
2019-06-18T11:06:33.005Z,32.00
2019-06-18T11:09:02.736Z,32.10
2019-06-18T11:11:33.588Z,32.10
2019-06-18T11:14:11.373Z,31.90
2019-06-18T11:16:33.433Z,32.10
2019-06-18T11:19:02.625Z,31.80
2019-06-18T11:21:33.636Z,31.80
2019-06-18T11:24:03.966Z,31.90
2019-06-18T11:26:33.540Z,32.00
2019-06-18T11:29:03.043Z,32.00
2019-06-18T11:31:32.870Z,32.20
2019-06-18T11:34:03.249Z,32.40
2019-06-18T11:36:32.861Z,32.30
2019-06-18T11:39:03.807Z,31.70
2019-06-18T11:41:32.324Z,31.50
2019-06-18T11:44:03.450Z,31.80
2019-06-18T11:46:31.849Z,32.00
2019-06-18T11:49:03.185Z,32.00
2019-06-18T11:51:32.656Z,31.60
2019-06-18T11:54:03.688Z,31.00
2019-06-18T11:56:32.810Z,30.40
2019-06-18T11:59:02.642Z,29.80
2019-06-18T12:01:35.066Z,29.60
2019-06-18T12:04:03.942Z,29.40
2019-06-18T12:06:32.860Z,29.20
2019-06-18T12:09:02.818Z,28.90
2019-06-18T12:11:33.295Z,29.00
2019-06-18T12:14:04.249Z,28.90
2019-06-18T12:16:33.067Z,28.70
2019-06-18T12:19:03.717Z,28.40
2019-06-18T12:21:33.142Z,28.60
2019-06-18T12:24:04.041Z,28.60
2019-06-18T12:26:33.636Z,28.80
2019-06-18T12:29:03.555Z,28.70
2019-06-18T12:31:32.552Z,28.50
2019-06-18T12:34:03.504Z,28.40
2019-06-18T12:36:32.820Z,28.30
2019-06-18T12:39:03.294Z,28.10
2019-06-18T12:41:33.144Z,28.10
2019-06-18T12:44:02.909Z,28.20
2019-06-18T12:46:33.897Z,28.00
2019-06-18T12:49:03.223Z,27.90
2019-06-18T12:51:33.634Z,28.00
2019-06-18T12:54:09.269Z,28.20
2019-06-18T12:56:33.378Z,28.30
2019-06-18T12:59:20.693Z,28.40
2019-06-18T13:01:32.712Z,28.50
2019-06-18T13:04:02.559Z,28.50
2019-06-18T13:06:32.748Z,28.60
2019-06-18T13:09:03.422Z,28.70
2019-06-18T13:11:33.137Z,28.80
2019-06-18T13:14:04.077Z,28.80
2019-06-18T13:16:33.391Z,28.70
2019-06-18T13:19:03.578Z,28.50
2019-06-18T13:21:32.672Z,28.50
2019-06-18T13:24:02.795Z,28.50
2019-06-18T13:26:31.917Z,28.60
2019-06-18T13:29:03.099Z,28.60
2019-06-18T13:31:33.296Z,28.40
2019-06-18T13:34:02.902Z,28.40
2019-06-18T13:36:43.447Z,28.50
2019-06-18T13:39:02.943Z,28.40
2019-06-18T13:41:32.081Z,28.40
2019-06-18T13:44:00.916Z,28.50
2019-06-18T13:46:33.117Z,28.50
2019-06-18T13:49:03.018Z,28.60
2019-06-18T13:51:33.033Z,28.70
2019-06-18T13:54:01.599Z,28.60
2019-06-18T13:56:33.102Z,28.80
2019-06-18T13:59:03.198Z,28.80
2019-06-18T14:01:32.786Z,28.90
2019-06-18T14:04:03.677Z,29.00
2019-06-18T14:06:33.640Z,28.90
2019-06-18T14:09:03.050Z,28.80
2019-06-18T14:11:32.517Z,28.40
2019-06-18T14:14:02.876Z,28.30
2019-06-18T14:16:33.264Z,28.10
2019-06-18T14:19:02.725Z,28.10
2019-06-18T14:21:32.814Z,28.00
2019-06-18T14:24:04.780Z,28.10
2019-06-18T14:26:33.021Z,28.10
2019-06-18T14:29:03.343Z,28.20
2019-06-18T14:31:32.900Z,28.10
2019-06-18T14:34:03.230Z,28.30
2019-06-18T14:36:33.370Z,28.30
2019-06-18T14:39:05.515Z,28.40
2019-06-18T14:41:35.154Z,28.30
2019-06-18T14:44:04.442Z,28.30
2019-06-18T14:46:33.368Z,28.30
2019-06-18T14:49:03.462Z,28.40
2019-06-18T14:51:32.793Z,28.40
2019-06-18T14:54:20.834Z,28.50
2019-06-18T14:56:32.500Z,28.60
2019-06-18T14:59:02.877Z,28.50
2019-06-18T15:01:33.332Z,28.50
2019-06-18T15:04:02.499Z,28.50
2019-06-18T15:06:32.591Z,28.30
2019-06-18T15:09:03.304Z,28.40
2019-06-18T15:11:32.710Z,28.30
2019-06-18T15:14:01.714Z,28.40
2019-06-18T15:16:32.743Z,28.40
2019-06-18T15:19:03.333Z,28.30
2019-06-18T15:21:33.506Z,28.20
2019-06-18T15:24:02.233Z,28.20
2019-06-18T15:26:32.816Z,28.10
2019-06-18T15:29:02.556Z,28.00
2019-06-18T15:31:31.582Z,27.80
2019-06-18T15:34:00.443Z,27.70
2019-06-18T15:36:29.284Z,27.60
2019-06-18T15:38:58.187Z,27.50
2019-06-18T15:41:33.532Z,27.50
2019-06-18T15:44:03.023Z,27.40
2019-06-18T15:46:31.460Z,27.30
2019-06-18T15:49:03.654Z,27.20
2019-06-18T15:51:32.462Z,27.20
2019-06-18T15:54:03.435Z,27.20
2019-06-18T15:56:32.587Z,27.10
2019-06-18T15:59:03.721Z,27.10
2019-06-18T16:01:32.990Z,27.10
2019-06-18T16:04:02.730Z,27.10
2019-06-18T16:06:34.748Z,27.20
2019-06-18T16:09:04.229Z,27.20
2019-06-18T16:11:33.592Z,27.20
2019-06-18T16:14:03.310Z,27.20
2019-06-18T16:16:32.833Z,27.20
2019-06-18T16:19:03.358Z,27.20
2019-06-18T16:21:33.708Z,27.30
2019-06-18T16:24:03.052Z,27.50
2019-06-18T16:26:32.318Z,27.60
2019-06-18T16:29:02.617Z,27.60
2019-06-18T16:31:33.415Z,27.60
2019-06-18T16:34:03.181Z,27.60
2019-06-18T16:36:32.801Z,27.60
2019-06-18T16:39:03.467Z,27.50
2019-06-18T16:41:32.595Z,27.20
2019-06-18T16:44:02.758Z,27.00
2019-06-18T16:46:33.165Z,26.90
2019-06-18T16:49:03.627Z,26.80
2019-06-18T16:51:33.196Z,26.80
2019-06-18T16:54:03.568Z,26.70
2019-06-18T16:56:36.773Z,26.70
2019-06-18T16:59:08.609Z,26.80
2019-06-18T17:01:40.211Z,26.80
2019-06-18T17:04:12.909Z,26.80
2019-06-18T17:06:43.001Z,26.60
2019-06-18T17:09:16.513Z,26.60
2019-06-18T17:11:45.405Z,26.70
2019-06-18T17:14:17.552Z,26.60
2019-06-18T17:16:48.537Z,26.70
2019-06-18T17:19:17.705Z,26.70
2019-06-18T17:21:46.546Z,26.60
2019-06-18T17:24:15.499Z,26.60
2019-06-18T17:26:48.453Z,26.60
2019-06-18T17:29:18.544Z,26.60
2019-06-18T17:31:48.330Z,26.60
2019-06-18T17:34:17.778Z,26.60
2019-06-18T17:36:46.736Z,26.60
2019-06-18T17:39:18.653Z,26.60
2019-06-18T17:41:47.935Z,26.50
2019-06-18T17:44:16.685Z,26.40
2019-06-18T17:46:45.445Z,26.40
2019-06-18T17:49:14.438Z,26.40
2019-06-18T17:51:45.490Z,26.40
2019-06-18T17:54:16.719Z,26.30
2019-06-18T17:56:45.710Z,26.30
2019-06-18T17:59:16.081Z,26.20
2019-06-18T18:01:45.236Z,26.10
2019-06-18T18:04:14.226Z,26.10
2019-06-18T18:06:43.224Z,26.10
2019-06-18T18:09:14.048Z,26.00
2019-06-18T18:11:46.281Z,26.00
2019-06-18T18:14:15.356Z,25.90
2019-06-18T18:16:44.270Z,25.90
2019-06-18T18:19:33.969Z,25.80
2019-06-18T18:22:03.357Z,25.80
2019-06-18T18:24:33.355Z,25.80
2019-06-18T18:27:02.937Z,25.70
2019-06-18T18:29:32.805Z,25.70
2019-06-18T18:32:02.350Z,25.60
2019-06-18T18:34:32.690Z,25.60
2019-06-18T18:37:02.847Z,25.50
2019-06-18T18:39:32.620Z,25.40
2019-06-18T18:42:11.155Z,25.40
2019-06-18T18:44:48.544Z,25.30
2019-06-18T18:47:29.401Z,25.30
2019-06-18T18:50:12.895Z,25.20
2019-06-18T18:52:43.523Z,25.10
2019-06-18T18:55:13.696Z,25.10
2019-06-18T18:57:53.739Z,25.00
2019-06-18T19:00:48.260Z,24.90
2019-06-18T19:03:18.657Z,24.80
2019-06-18T19:05:58.747Z,24.70
2019-06-18T19:08:45.074Z,24.70
2019-06-18T19:11:22.059Z,24.50
2019-06-18T19:13:53.161Z,24.50
2019-06-18T19:16:33.035Z,24.40
2019-06-18T19:19:08.860Z,24.30
2019-06-18T19:21:44.634Z,24.20
2019-06-18T19:24:13.615Z,24.10
2019-06-18T19:26:52.985Z,24.10
2019-06-18T19:29:17.245Z,24.00
2019-06-18T19:31:56.832Z,23.90
2019-06-18T19:34:36.516Z,23.90
2019-06-18T19:37:27.979Z,23.80
2019-06-18T19:40:12.778Z,23.70
2019-06-18T19:42:52.841Z,23.60
2019-06-18T19:45:29.890Z,23.40
2019-06-18T19:48:03.164Z,23.40
2019-06-18T19:50:33.263Z,23.30
2019-06-18T19:53:03.757Z,23.30
2019-06-18T19:55:42.535Z,23.20
2019-06-18T19:58:26.088Z,23.20
2019-06-18T20:01:05.523Z,23.10
2019-06-18T20:03:45.283Z,23.10
2019-06-18T20:06:24.862Z,23.00
2019-06-18T20:09:07.678Z,23.10
2019-06-18T20:11:44.213Z,23.00
2019-06-18T20:14:24.239Z,22.90
2019-06-18T20:17:15.238Z,22.80
2019-06-18T20:19:55.146Z,22.80
2019-06-18T20:22:25.430Z,22.70
2019-06-18T20:25:42.680Z,22.60
2019-06-18T20:28:33.159Z,22.50
2019-06-18T20:31:08.411Z,22.50
2019-06-18T20:34:06.349Z,22.40
2019-06-18T20:36:46.373Z,22.40
2019-06-18T20:39:16.252Z,22.30
2019-06-18T20:42:21.972Z,22.30
2019-06-18T20:45:15.342Z,22.30
2019-06-18T20:47:59.143Z,22.20
2019-06-18T20:50:33.060Z,22.20
2019-06-18T20:53:12.890Z,22.10
2019-06-18T20:55:43.337Z,22.10
2019-06-18T20:58:26.578Z,22.00
2019-06-18T21:00:57.273Z,22.00
2019-06-18T21:03:32.867Z,21.90
2019-06-18T21:06:12.536Z,21.80
2019-06-18T21:08:49.192Z,21.80
2019-06-18T21:11:18.366Z,21.70
2019-06-18T21:13:55.516Z,21.50
2019-06-18T21:16:33.384Z,21.40
2019-06-18T21:22:03.005Z,21.30
2019-06-18T21:24:33.972Z,21.20
2019-06-18T21:27:14.935Z,21.10
2019-06-18T21:29:51.003Z,21.00
2019-06-18T21:32:27.272Z,21.00
2019-06-18T21:35:08.620Z,20.90
2019-06-18T21:37:37.870Z,20.90
2019-06-18T21:40:07.399Z,20.80
2019-06-18T21:42:51.523Z,20.80
2019-06-18T21:45:19.476Z,20.70
2019-06-18T21:47:48.207Z,20.70
2019-06-18T21:50:17.201Z,20.60
2019-06-18T21:52:45.986Z,20.60
2019-06-18T21:55:14.920Z,20.50
2019-06-18T21:57:43.722Z,20.50
2019-06-18T22:00:15.171Z,20.50
2019-06-18T22:02:44.037Z,20.40
2019-06-18T22:05:13.225Z,20.30
2019-06-18T22:07:43.943Z,20.20
2019-06-18T22:10:14.856Z,20.20
2019-06-18T22:12:45.595Z,20.10
2019-06-18T22:15:15.018Z,20.10
2019-06-18T22:17:44.020Z,20.10
2019-06-18T22:20:15.296Z,20.00
2019-06-18T22:22:44.438Z,20.00
2019-06-18T22:25:13.349Z,19.90
2019-06-18T22:27:42.664Z,19.90
2019-06-18T22:30:13.610Z,19.90
2019-06-18T22:32:43.217Z,19.80
2019-06-18T22:35:13.042Z,19.80
2019-06-18T22:37:43.206Z,19.70
2019-06-18T22:40:13.017Z,19.70
2019-06-18T22:42:42.749Z,19.60
2019-06-18T22:45:12.631Z,19.60
2019-06-18T22:47:43.052Z,19.60
2019-06-18T22:50:12.784Z,19.50
2019-06-18T22:52:42.556Z,19.50
2019-06-18T22:55:13.198Z,19.50
2019-06-18T22:57:42.622Z,19.60
2019-06-18T23:00:12.179Z,19.60
2019-06-18T23:02:43.023Z,19.50
2019-06-18T23:05:13.075Z,19.50
2019-06-18T23:07:43.020Z,19.50
2019-06-18T23:10:12.849Z,19.50
2019-06-18T23:12:43.280Z,19.50
2019-06-18T23:15:13.851Z,19.40
2019-06-18T23:17:43.088Z,19.50
2019-06-18T23:20:12.980Z,19.40
2019-06-18T23:22:43.255Z,19.40
2019-06-18T23:25:12.783Z,19.40
2019-06-18T23:27:43.395Z,19.30
2019-06-18T23:30:13.039Z,19.30
2019-06-18T23:32:43.024Z,19.30
2019-06-18T23:35:13.236Z,19.20
2019-06-18T23:37:44.070Z,19.20
2019-06-18T23:40:13.120Z,19.10
2019-06-18T23:42:43.924Z,19.10
2019-06-18T23:45:12.896Z,19.10
2019-06-18T23:47:42.842Z,19.00
2019-06-18T23:50:12.776Z,19.00
2019-06-18T23:52:41.624Z,19.00
2019-06-18T23:55:12.542Z,19.10
2019-06-18T23:57:41.001Z,19.10
